createdAt,value
2017-02-17T00:00:18.317Z,12
2017-02-17T00:01:31.463Z,12
2017-02-17T00:02:44.606Z,12
2017-02-17T00:03:57.768Z,12
2017-02-17T00:05:24.349Z,12
2017-02-17T00:06:51.497Z,12
2017-02-17T00:08:04.831Z,12
2017-02-17T00:09:17.420Z,12
2017-02-17T00:10:30.586Z,12
2017-02-17T00:11:43.733Z,12
2017-02-17T00:12:57.086Z,12
2017-02-17T00:14:10.235Z,12
2017-02-17T00:15:22.837Z,4
2017-02-17T00:16:35.977Z,12
2017-02-17T00:17:48.571Z,12
2017-02-17T00:19:01.901Z,12
2017-02-17T00:20:14.485Z,12
2017-02-17T00:22:54.794Z,12
2017-02-17T00:24:07.580Z,12
2017-02-17T00:25:34.721Z,12
2017-02-17T00:28:15.046Z,12
2017-02-17T00:29:27.643Z,4
2017-02-17T00:30:40.782Z,12
2017-02-17T00:31:53.941Z,12
2017-02-17T00:33:07.086Z,12
2017-02-17T00:34:20.427Z,12
2017-02-17T00:35:33.574Z,12
2017-02-17T00:36:46.723Z,12
2017-02-17T00:37:59.881Z,12
2017-02-17T00:39:13.020Z,12
2017-02-17T00:40:25.809Z,12
2017-02-17T00:41:38.966Z,12
2017-02-17T00:42:52.121Z,12
2017-02-17T00:44:05.265Z,12
2017-02-17T00:45:17.678Z,12
2017-02-17T00:46:29.817Z,12
2017-02-17T00:47:43.095Z,8
2017-02-17T00:48:56.396Z,12
2017-02-17T00:50:09.707Z,12
2017-02-17T00:51:21.852Z,12
2017-02-17T00:52:35.134Z,12
2017-02-17T00:53:47.836Z,12
2017-02-17T00:55:01.121Z,12
2017-02-17T00:56:14.168Z,12
2017-02-17T00:57:26.312Z,12
2017-02-17T00:58:39.622Z,12
2017-02-17T00:59:52.899Z,12
2017-02-17T01:01:06.168Z,12
2017-02-17T01:02:19.094Z,12
2017-02-17T01:03:32.363Z,12
2017-02-17T01:04:45.660Z,12
2017-02-17T01:05:58.956Z,12
2017-02-17T01:07:12.446Z,12
2017-02-17T01:08:25.721Z,12
2017-02-17T01:09:38.994Z,12
2017-02-17T01:10:52.278Z,12
2017-02-17T01:12:05.601Z,12
2017-02-17T01:13:18.318Z,4
2017-02-17T01:14:31.617Z,12
2017-02-17T01:15:44.901Z,12
2017-02-17T01:16:58.174Z,12
2017-02-17T01:18:25.648Z,12
2017-02-17T01:19:38.940Z,12
2017-02-17T01:20:52.235Z,12
2017-02-17T01:22:05.528Z,12
2017-02-17T01:23:18.258Z,16
2017-02-17T01:24:31.537Z,12
2017-02-17T01:25:44.821Z,12
2017-02-17T01:26:58.108Z,12
2017-02-17T01:28:10.847Z,4
2017-02-17T01:29:22.985Z,16
2017-02-17T01:30:36.394Z,12
2017-02-17T01:31:49.544Z,12
2017-02-17T01:33:02.696Z,12
2017-02-17T01:34:15.843Z,12
2017-02-17T01:35:28.974Z,12
2017-02-17T01:36:41.550Z,12
2017-02-17T01:37:54.713Z,12
2017-02-17T01:39:07.855Z,12
2017-02-17T01:40:20.756Z,12
2017-02-17T01:41:33.916Z,12
2017-02-17T01:42:47.080Z,12
2017-02-17T01:44:13.659Z,12
2017-02-17T01:45:26.445Z,12
2017-02-17T01:46:39.584Z,12
2017-02-17T01:47:52.757Z,12
2017-02-17T01:49:05.899Z,12
2017-02-17T01:50:18.481Z,12
2017-02-17T01:51:31.657Z,12
2017-02-17T01:52:44.828Z,12
2017-02-17T01:53:57.981Z,12
2017-02-17T01:55:11.117Z,12
2017-02-17T01:56:23.732Z,12
2017-02-17T01:57:36.329Z,12
2017-02-17T01:58:49.478Z,12
2017-02-17T02:00:02.618Z,4
2017-02-17T02:01:15.199Z,16
2017-02-17T02:02:28.642Z,12
2017-02-17T02:03:41.805Z,4
2017-02-17T02:04:54.942Z,12
2017-02-17T02:06:08.087Z,12
2017-02-17T02:07:20.122Z,12
2017-02-17T02:08:33.571Z,12
2017-02-17T02:09:46.705Z,12
2017-02-17T02:10:59.863Z,12
2017-02-17T02:13:39.817Z,12
2017-02-17T02:14:52.950Z,12
2017-02-17T02:16:06.087Z,12
2017-02-17T02:17:19.221Z,12
2017-02-17T02:18:31.827Z,12
2017-02-17T02:19:58.965Z,12
2017-02-17T02:21:12.113Z,12
2017-02-17T02:22:25.288Z,12
2017-02-17T02:23:38.654Z,12
2017-02-17T02:26:17.825Z,12
2017-02-17T02:27:30.431Z,12
2017-02-17T02:28:43.587Z,12
2017-02-17T02:29:56.741Z,12
2017-02-17T02:31:09.891Z,12
2017-02-17T02:32:21.929Z,12
2017-02-17T02:33:35.071Z,12
2017-02-17T02:34:47.657Z,12
2017-02-17T02:36:00.814Z,12
2017-02-17T02:38:41.311Z,12
2017-02-17T02:40:08.461Z,12
2017-02-17T02:41:21.616Z,12
2017-02-17T02:42:34.759Z,12
2017-02-17T02:43:48.114Z,4
2017-02-17T02:45:00.182Z,12
2017-02-17T02:46:12.771Z,12
2017-02-17T02:47:25.925Z,12
2017-02-17T02:48:39.066Z,16
2017-02-17T02:49:52.405Z,12
2017-02-17T02:51:05.540Z,12
2017-02-17T02:52:18.689Z,4
2017-02-17T02:53:31.821Z,12
2017-02-17T02:54:44.949Z,8
2017-02-17T02:55:57.566Z,12
2017-02-17T02:57:10.713Z,12
2017-02-17T02:58:23.861Z,12
2017-02-17T02:59:36.450Z,12
2017-02-17T03:00:49.908Z,12
2017-02-17T03:02:17.175Z,12
2017-02-17T03:03:29.901Z,12
2017-02-17T03:04:43.184Z,12
2017-02-17T03:05:56.458Z,4
2017-02-17T03:07:09.195Z,12
2017-02-17T03:08:21.910Z,12
2017-02-17T03:09:34.638Z,12
2017-02-17T03:10:47.938Z,12
2017-02-17T03:12:01.220Z,12
2017-02-17T03:13:13.937Z,12
2017-02-17T03:14:27.222Z,12
2017-02-17T03:15:40.494Z,12
2017-02-17T03:16:53.780Z,12
2017-02-17T03:18:07.050Z,12
2017-02-17T03:19:20.344Z,12
2017-02-17T03:20:33.651Z,12
2017-02-17T03:21:47.126Z,12
2017-02-17T03:23:00.425Z,12
2017-02-17T03:24:13.708Z,12
2017-02-17T03:25:26.994Z,12
2017-02-17T03:26:40.266Z,12
2017-02-17T03:27:53.755Z,12
2017-02-17T03:29:06.473Z,12
2017-02-17T03:30:19.751Z,12
2017-02-17T03:31:33.029Z,12
2017-02-17T03:32:46.513Z,12
2017-02-17T03:33:59.798Z,12
2017-02-17T03:35:13.093Z,12
2017-02-17T03:36:26.384Z,12
2017-02-17T03:37:39.682Z,12
2017-02-17T03:38:52.969Z,12
2017-02-17T03:40:06.298Z,12
2017-02-17T03:41:19.579Z,12
2017-02-17T03:42:32.847Z,12
2017-02-17T03:43:46.342Z,12
2017-02-17T03:44:59.515Z,12
2017-02-17T03:46:12.099Z,12
2017-02-17T03:47:24.685Z,12
2017-02-17T03:48:37.834Z,12
2017-02-17T03:49:51.385Z,12
2017-02-17T03:51:18.540Z,12
2017-02-17T03:52:31.688Z,12
2017-02-17T03:53:44.853Z,12
2017-02-17T03:54:58.183Z,12
2017-02-17T03:56:10.776Z,12
2017-02-17T03:57:23.968Z,12
2017-02-17T03:58:37.126Z,12
2017-02-17T04:00:04.293Z,12
2017-02-17T04:01:16.876Z,12
2017-02-17T04:02:28.911Z,12
2017-02-17T04:03:42.056Z,12
2017-02-17T04:04:55.199Z,12
2017-02-17T04:06:07.985Z,12
2017-02-17T04:07:20.010Z,12
2017-02-17T04:08:33.159Z,12
2017-02-17T04:09:46.306Z,12
2017-02-17T04:10:58.889Z,12
2017-02-17T04:12:12.019Z,12
2017-02-17T04:13:24.618Z,12
2017-02-17T04:14:37.234Z,12
2017-02-17T04:15:50.392Z,12
2017-02-17T04:17:03.743Z,12
2017-02-17T04:18:16.346Z,12
2017-02-17T04:19:28.916Z,12
2017-02-17T04:20:42.076Z,12
2017-02-17T04:21:55.459Z,12
2017-02-17T04:23:08.612Z,12
2017-02-17T04:24:21.777Z,12
2017-02-17T04:25:34.954Z,12
2017-02-17T04:26:48.096Z,12
2017-02-17T04:28:01.257Z,12
2017-02-17T04:29:14.386Z,12
2017-02-17T04:30:27.622Z,12
2017-02-17T04:31:40.907Z,12
2017-02-17T04:32:54.198Z,12
2017-02-17T04:34:07.482Z,12
2017-02-17T04:35:20.779Z,12
2017-02-17T04:36:33.515Z,12
2017-02-17T04:37:47.094Z,12
2017-02-17T04:39:00.379Z,12
2017-02-17T04:40:13.670Z,12
2017-02-17T04:41:26.954Z,12
2017-02-17T04:42:40.239Z,12
2017-02-17T04:44:07.700Z,12
2017-02-17T04:45:20.965Z,12
2017-02-17T04:46:48.214Z,12
2017-02-17T04:48:15.475Z,12
2017-02-17T04:49:29.050Z,12
2017-02-17T04:50:41.762Z,12
2017-02-17T04:51:55.057Z,12
2017-02-17T04:53:08.346Z,12
2017-02-17T04:54:21.270Z,12
2017-02-17T04:55:34.549Z,12
2017-02-17T04:56:47.834Z,12
2017-02-17T04:58:01.103Z,12
2017-02-17T04:59:13.806Z,12
2017-02-17T05:00:26.549Z,12
2017-02-17T05:01:39.826Z,12
2017-02-17T05:02:53.098Z,12
2017-02-17T05:04:06.388Z,12
2017-02-17T05:05:19.969Z,8
2017-02-17T05:06:33.268Z,12
2017-02-17T05:07:46.585Z,12
2017-02-17T05:08:59.328Z,12
2017-02-17T05:10:26.886Z,12
2017-02-17T05:13:06.854Z,12
2017-02-17T05:14:20.140Z,12
2017-02-17T05:15:33.424Z,8
2017-02-17T05:16:46.700Z,12
2017-02-17T05:17:59.985Z,12
2017-02-17T05:19:13.258Z,12
2017-02-17T05:20:25.698Z,8
2017-02-17T05:21:38.418Z,12
2017-02-17T05:22:51.712Z,12
2017-02-17T05:24:05.011Z,12
2017-02-17T05:25:17.151Z,8
2017-02-17T05:26:30.447Z,8
2017-02-17T05:27:57.697Z,12
2017-02-17T05:29:10.982Z,8
2017-02-17T05:30:23.694Z,12
2017-02-17T05:31:37.173Z,12
2017-02-17T05:33:04.418Z,12
2017-02-17T05:34:17.116Z,12
2017-02-17T05:35:30.389Z,12
2017-02-17T05:36:43.889Z,12
2017-02-17T05:37:57.182Z,12
2017-02-17T05:39:10.480Z,8
2017-02-17T05:40:23.204Z,12
2017-02-17T05:41:35.911Z,12
2017-02-17T05:42:49.189Z,12
2017-02-17T05:44:02.484Z,12
2017-02-17T05:45:15.804Z,12
2017-02-17T05:46:29.108Z,12
2017-02-17T05:47:42.139Z,12
2017-02-17T05:48:55.448Z,12
2017-02-17T05:50:08.726Z,12
2017-02-17T05:51:21.429Z,12
2017-02-17T05:52:35.024Z,12
2017-02-17T05:53:48.310Z,12
2017-02-17T05:55:01.604Z,12
2017-02-17T05:56:14.888Z,12
2017-02-17T05:58:55.631Z,12
2017-02-17T06:00:08.819Z,12
2017-02-17T06:01:21.977Z,12
2017-02-17T06:02:35.117Z,12
2017-02-17T06:03:47.925Z,8
2017-02-17T06:05:01.083Z,12
2017-02-17T06:06:14.248Z,12
2017-02-17T06:07:27.408Z,12
2017-02-17T06:08:40.856Z,12
2017-02-17T06:09:53.999Z,12
2017-02-17T06:11:07.132Z,12
2017-02-17T06:12:20.276Z,12
2017-02-17T06:13:33.412Z,12
2017-02-17T06:14:46.860Z,12
2017-02-17T06:16:00.002Z,12
2017-02-17T06:17:13.160Z,12
2017-02-17T06:18:26.310Z,12
2017-02-17T06:19:39.092Z,12
2017-02-17T06:20:52.244Z,12
2017-02-17T06:22:05.378Z,12
2017-02-17T06:23:17.426Z,12
2017-02-17T06:24:30.554Z,12
2017-02-17T06:25:43.136Z,12
2017-02-17T06:26:56.273Z,12
2017-02-17T06:28:09.446Z,12
2017-02-17T06:29:22.578Z,12
2017-02-17T06:30:35.375Z,12
2017-02-17T06:33:29.165Z,12
2017-02-17T06:34:42.317Z,8
2017-02-17T06:35:55.204Z,8
2017-02-17T06:37:08.374Z,12
2017-02-17T06:38:21.536Z,12
2017-02-17T06:39:34.688Z,12
2017-02-17T06:40:48.028Z,12
2017-02-17T06:42:01.169Z,4
2017-02-17T06:43:14.305Z,12
2017-02-17T06:44:41.481Z,12
2017-02-17T06:45:54.621Z,8
2017-02-17T06:47:07.770Z,12
2017-02-17T06:48:20.898Z,12
2017-02-17T06:49:33.492Z,8
2017-02-17T06:50:46.621Z,12
2017-02-17T06:52:00.095Z,12
2017-02-17T06:53:13.240Z,12
2017-02-17T06:54:26.399Z,12
2017-02-17T06:55:39.574Z,12
2017-02-17T06:56:52.922Z,12
2017-02-17T06:58:06.095Z,12
2017-02-17T06:59:18.679Z,8
2017-02-17T07:00:31.823Z,12
2017-02-17T07:01:45.171Z,12
2017-02-17T07:02:58.321Z,12
2017-02-17T07:04:11.470Z,12
2017-02-17T07:05:24.609Z,12
2017-02-17T07:06:37.765Z,8
2017-02-17T07:07:51.163Z,12
2017-02-17T07:09:04.340Z,12
2017-02-17T07:10:17.470Z,12
2017-02-17T07:11:30.609Z,12
2017-02-17T07:12:43.462Z,12
2017-02-17T07:13:56.605Z,12
2017-02-17T07:15:09.744Z,12
2017-02-17T07:16:21.805Z,8
2017-02-17T07:17:34.952Z,12
2017-02-17T07:18:48.384Z,12
2017-02-17T07:20:00.958Z,12
2017-02-17T07:21:14.102Z,8
2017-02-17T07:22:26.696Z,12
2017-02-17T07:23:39.850Z,12
2017-02-17T07:24:52.721Z,12
2017-02-17T07:26:05.334Z,12
2017-02-17T07:27:16.828Z,12
2017-02-17T07:28:29.961Z,12
2017-02-17T07:29:43.287Z,4
2017-02-17T07:30:56.419Z,12
2017-02-17T07:32:08.998Z,12
2017-02-17T07:33:22.141Z,12
2017-02-17T07:34:35.472Z,12
2017-02-17T07:35:48.614Z,12
2017-02-17T07:37:01.763Z,12
2017-02-17T07:38:28.912Z,8
2017-02-17T07:39:42.246Z,4
2017-02-17T07:40:55.404Z,12
2017-02-17T07:42:08.561Z,12
2017-02-17T07:43:21.151Z,12
2017-02-17T07:44:34.287Z,12
2017-02-17T07:45:47.737Z,12
2017-02-17T07:47:00.894Z,4
2017-02-17T07:48:14.041Z,12
2017-02-17T07:49:27.209Z,12
2017-02-17T07:50:39.987Z,12
2017-02-17T07:51:53.132Z,12
2017-02-17T07:53:06.263Z,8
2017-02-17T07:54:19.427Z,12
2017-02-17T07:55:32.592Z,8
2017-02-17T07:56:45.423Z,8
2017-02-17T07:57:58.597Z,8
2017-02-17T07:59:11.747Z,12
2017-02-17T08:00:38.904Z,12
2017-02-17T08:01:52.287Z,12
2017-02-17T08:03:05.445Z,8
2017-02-17T08:04:18.603Z,8
2017-02-17T08:05:31.747Z,4
2017-02-17T08:06:44.583Z,12
2017-02-17T08:07:57.735Z,12
2017-02-17T08:09:10.869Z,12
2017-02-17T08:10:24.010Z,12
2017-02-17T08:11:37.162Z,12
2017-02-17T08:12:50.551Z,12
2017-02-17T08:14:03.701Z,12
2017-02-17T08:15:15.810Z,12
2017-02-17T08:16:29.091Z,12
2017-02-17T08:17:42.664Z,12
2017-02-17T08:18:55.399Z,12
2017-02-17T08:20:08.109Z,12
2017-02-17T08:21:20.827Z,12
2017-02-17T08:22:33.537Z,12
2017-02-17T08:23:47.027Z,12
2017-02-17T08:25:00.305Z,12
2017-02-17T08:26:13.582Z,12
2017-02-17T08:27:26.854Z,12
2017-02-17T08:28:39.866Z,12
2017-02-17T08:29:53.145Z,12
2017-02-17T08:31:06.421Z,12
2017-02-17T08:32:19.703Z,12
2017-02-17T08:33:33.017Z,8
2017-02-17T08:34:46.488Z,8
2017-02-17T08:35:59.799Z,12
2017-02-17T08:37:13.106Z,12
2017-02-17T08:38:25.817Z,16
2017-02-17T08:39:38.722Z,12
2017-02-17T08:40:52.005Z,12
2017-02-17T08:42:05.271Z,12
2017-02-17T08:43:17.997Z,12
2017-02-17T08:44:31.312Z,16
2017-02-17T08:45:44.807Z,16
2017-02-17T08:46:58.087Z,16
2017-02-17T08:48:11.365Z,16
2017-02-17T08:49:24.097Z,16
2017-02-17T08:50:37.111Z,20
2017-02-17T08:51:50.379Z,20
2017-02-17T08:53:03.654Z,12
2017-02-17T08:54:16.359Z,16
2017-02-17T08:55:29.655Z,16
2017-02-17T08:56:42.660Z,20
2017-02-17T08:57:55.947Z,24
2017-02-17T08:59:09.222Z,24
2017-02-17T09:00:22.403Z,28
2017-02-17T09:01:35.174Z,36
2017-02-17T09:02:48.338Z,36
2017-02-17T09:04:01.479Z,40
2017-02-17T09:05:14.094Z,48
2017-02-17T09:06:27.238Z,52
2017-02-17T09:07:40.687Z,56
2017-02-17T09:08:53.829Z,60
2017-02-17T09:10:06.982Z,68
2017-02-17T09:11:20.121Z,72
2017-02-17T09:12:33.507Z,80
2017-02-17T09:13:46.653Z,84
2017-02-17T09:14:59.822Z,84
2017-02-17T09:16:12.417Z,92
2017-02-17T09:17:25.553Z,96
2017-02-17T09:18:38.887Z,104
2017-02-17T09:20:05.477Z,108
2017-02-17T09:21:18.062Z,116
2017-02-17T09:22:30.643Z,120
2017-02-17T09:23:44.003Z,120
2017-02-17T09:24:57.142Z,128
2017-02-17T09:27:37.431Z,136
2017-02-17T09:28:50.788Z,144
2017-02-17T09:30:03.932Z,148
2017-02-17T09:31:15.967Z,152
2017-02-17T09:32:28.547Z,156
2017-02-17T09:33:41.704Z,160
2017-02-17T09:34:55.041Z,164
2017-02-17T09:36:08.181Z,172
2017-02-17T09:37:20.776Z,172
2017-02-17T09:38:33.903Z,176
2017-02-17T09:39:47.295Z,180
2017-02-17T09:41:00.477Z,184
2017-02-17T09:42:13.635Z,188
2017-02-17T09:43:26.792Z,192
2017-02-17T09:44:40.242Z,196
2017-02-17T09:45:52.929Z,200
2017-02-17T09:47:20.180Z,204
2017-02-17T09:48:33.482Z,212
2017-02-17T09:50:00.736Z,216
2017-02-17T09:51:13.450Z,220
2017-02-17T09:52:26.187Z,224
2017-02-17T09:53:38.911Z,228
2017-02-17T09:54:51.616Z,232
2017-02-17T09:56:04.569Z,236
2017-02-17T09:57:17.270Z,236
2017-02-17T09:58:30.565Z,240
2017-02-17T09:59:43.851Z,244
2017-02-17T10:01:11.320Z,248
2017-02-17T10:02:24.622Z,248
2017-02-17T10:03:37.895Z,252
2017-02-17T10:04:51.228Z,252
2017-02-17T10:06:04.518Z,256
2017-02-17T10:07:18.007Z,264
2017-02-17T10:08:31.303Z,260
2017-02-17T10:09:44.584Z,268
2017-02-17T10:10:57.869Z,272
2017-02-17T10:12:10.883Z,272
2017-02-17T10:13:24.181Z,272
2017-02-17T10:14:37.473Z,276
2017-02-17T10:15:50.769Z,276
2017-02-17T10:17:04.279Z,280
2017-02-17T10:18:17.555Z,280
2017-02-17T10:19:30.842Z,284
2017-02-17T10:20:44.135Z,284
2017-02-17T10:21:57.411Z,284
2017-02-17T10:23:10.995Z,288
2017-02-17T10:24:24.262Z,292
2017-02-17T10:25:37.542Z,292
2017-02-17T10:26:50.245Z,296
2017-02-17T10:28:03.724Z,296
2017-02-17T10:29:30.976Z,304
2017-02-17T10:30:44.161Z,304
2017-02-17T10:31:57.290Z,308
2017-02-17T10:33:10.638Z,308
2017-02-17T10:34:23.216Z,312
2017-02-17T10:35:36.356Z,316
2017-02-17T10:36:49.504Z,316
2017-02-17T10:38:02.664Z,320
2017-02-17T10:39:16.052Z,320
2017-02-17T10:40:29.185Z,320
2017-02-17T10:41:42.335Z,324
2017-02-17T10:42:55.476Z,324
2017-02-17T10:44:08.874Z,324
2017-02-17T10:45:21.477Z,320
2017-02-17T10:46:34.625Z,328
2017-02-17T10:47:47.214Z,324
2017-02-17T10:49:14.660Z,328
2017-02-17T10:50:27.796Z,328
2017-02-17T10:51:40.933Z,336
2017-02-17T10:52:53.519Z,332
2017-02-17T10:54:06.671Z,336
2017-02-17T10:55:20.113Z,336
2017-02-17T10:56:33.250Z,336
2017-02-17T10:57:46.407Z,336
2017-02-17T10:58:59.577Z,340
2017-02-17T11:00:12.395Z,340
2017-02-17T11:01:25.564Z,340
2017-02-17T11:02:38.714Z,340
2017-02-17T11:04:05.933Z,344
2017-02-17T11:05:33.120Z,348
2017-02-17T11:06:46.311Z,348
2017-02-17T11:07:59.499Z,352
2017-02-17T11:09:12.776Z,348
2017-02-17T11:10:25.487Z,352
2017-02-17T11:11:38.546Z,348
2017-02-17T11:12:51.850Z,352
2017-02-17T11:14:05.229Z,352
2017-02-17T11:15:18.045Z,348
2017-02-17T11:16:31.349Z,356
2017-02-17T11:17:44.880Z,356
2017-02-17T11:18:57.810Z,356
2017-02-17T11:20:10.841Z,360
2017-02-17T11:21:23.876Z,360
2017-02-17T11:22:37.730Z,364
2017-02-17T11:23:51.378Z,336
2017-02-17T11:25:05.060Z,372
2017-02-17T11:26:18.623Z,376
2017-02-17T11:27:32.275Z,372
2017-02-17T11:28:45.556Z,376
2017-02-17T11:29:58.826Z,384
2017-02-17T11:31:12.120Z,384
2017-02-17T11:32:25.400Z,388
2017-02-17T11:33:38.681Z,388
2017-02-17T11:34:51.970Z,388
2017-02-17T11:36:05.255Z,392
2017-02-17T11:37:17.966Z,388
2017-02-17T11:38:31.243Z,392
2017-02-17T11:39:44.528Z,396
2017-02-17T11:40:57.810Z,404
2017-02-17T11:42:10.535Z,400
2017-02-17T11:43:23.257Z,372
2017-02-17T11:44:36.881Z,408
2017-02-17T11:45:50.162Z,416
2017-02-17T11:47:03.449Z,388
2017-02-17T11:48:30.696Z,412
2017-02-17T11:49:58.218Z,420
2017-02-17T11:51:10.952Z,432
2017-02-17T11:52:23.127Z,432
2017-02-17T11:53:36.570Z,428
2017-02-17T11:54:50.369Z,432
2017-02-17T11:56:03.931Z,436
2017-02-17T11:57:16.313Z,440
2017-02-17T11:58:29.934Z,452
2017-02-17T11:59:42.746Z,448
2017-02-17T12:00:55.899Z,456
2017-02-17T12:02:08.495Z,440
2017-02-17T12:03:20.528Z,456
2017-02-17T12:04:33.107Z,456
2017-02-17T12:05:46.578Z,460
2017-02-17T12:06:59.726Z,480
2017-02-17T12:08:12.873Z,476
2017-02-17T12:09:26.023Z,484
2017-02-17T12:10:39.489Z,480
2017-02-17T12:11:52.651Z,496
2017-02-17T12:13:05.249Z,500
2017-02-17T12:14:17.271Z,500
2017-02-17T12:15:30.543Z,508
2017-02-17T12:16:57.495Z,504
2017-02-17T12:18:10.826Z,528
2017-02-17T12:19:24.062Z,532
2017-02-17T12:22:32.625Z,544
2017-02-17T12:23:45.779Z,544
2017-02-17T12:24:58.390Z,536
2017-02-17T12:26:11.569Z,556
2017-02-17T12:27:25.032Z,544
2017-02-17T12:28:38.249Z,544
2017-02-17T12:29:51.429Z,568
2017-02-17T12:31:04.655Z,572
2017-02-17T12:32:17.297Z,576
2017-02-17T12:33:30.269Z,580
2017-02-17T12:34:43.553Z,580
2017-02-17T12:35:56.901Z,592
2017-02-17T12:37:09.695Z,600
2017-02-17T12:38:37.283Z,620
2017-02-17T12:39:50.722Z,728
2017-02-17T12:41:04.182Z,764
2017-02-17T12:42:17.597Z,828
2017-02-17T12:43:31.048Z,940
2017-02-17T12:44:43.453Z,1080
2017-02-17T12:47:23.577Z,1320
2017-02-17T12:48:37.079Z,1424
2017-02-17T12:49:50.244Z,1508
2017-02-17T12:51:03.411Z,1572
2017-02-17T12:52:16.559Z,1624
2017-02-17T12:53:29.701Z,1684
2017-02-17T12:54:42.851Z,1724
2017-02-17T12:55:55.998Z,1748
2017-02-17T12:57:09.181Z,1812
2017-02-17T12:58:22.336Z,1860
2017-02-17T12:59:35.156Z,1900
2017-02-17T13:00:48.291Z,1944
2017-02-17T13:02:00.320Z,1976
2017-02-17T13:03:12.913Z,2008
2017-02-17T13:04:25.526Z,2032
2017-02-17T13:05:38.880Z,2068
2017-02-17T13:06:52.050Z,2096
2017-02-17T13:08:05.204Z,2096
2017-02-17T13:09:17.229Z,2132
2017-02-17T13:10:29.825Z,2144
2017-02-17T13:11:43.193Z,2172
2017-02-17T13:12:56.372Z,2192
2017-02-17T13:14:08.396Z,2200
2017-02-17T13:15:21.533Z,2236
2017-02-17T13:16:34.712Z,2276
2017-02-17T13:17:47.872Z,2304
2017-02-17T13:19:01.022Z,2300
2017-02-17T13:20:13.619Z,2300
2017-02-17T13:21:26.767Z,2308
2017-02-17T13:22:52.816Z,2324
2017-02-17T13:24:05.966Z,2328
2017-02-17T13:25:19.105Z,2376
2017-02-17T13:26:46.449Z,2376
2017-02-17T13:27:59.606Z,2368
2017-02-17T13:29:12.227Z,2416
2017-02-17T13:30:25.390Z,2404
2017-02-17T13:31:38.844Z,2468
2017-02-17T13:32:52.016Z,2428
2017-02-17T13:34:05.167Z,2424
2017-02-17T13:35:17.216Z,2476
2017-02-17T13:36:30.385Z,2472
2017-02-17T13:37:43.747Z,2456
2017-02-17T13:38:56.936Z,2456
2017-02-17T13:40:23.541Z,2460
2017-02-17T13:41:36.152Z,2476
2017-02-17T13:42:49.118Z,2472
2017-02-17T13:44:02.283Z,2492
2017-02-17T13:45:15.434Z,2500
2017-02-17T13:46:42.591Z,2476
2017-02-17T13:48:09.934Z,2452
2017-02-17T13:49:23.111Z,2460
2017-02-17T13:50:36.277Z,2456
2017-02-17T13:51:49.444Z,2468
2017-02-17T13:53:02.591Z,2472
2017-02-17T13:54:15.739Z,2500
2017-02-17T13:55:42.366Z,2480
2017-02-17T13:56:55.533Z,2416
2017-02-17T13:58:08.736Z,2324
2017-02-17T13:59:21.906Z,2400
2017-02-17T14:00:35.065Z,2228
2017-02-17T14:01:48.229Z,2348
2017-02-17T14:03:00.854Z,2496
2017-02-17T14:04:13.463Z,2432
2017-02-17T14:05:26.081Z,2504
2017-02-17T14:06:38.671Z,2536
2017-02-17T14:07:51.816Z,2512
2017-02-17T14:09:04.990Z,2460
2017-02-17T14:10:18.460Z,2460
2017-02-17T14:11:31.660Z,2484
2017-02-17T14:12:44.885Z,2456
2017-02-17T14:14:11.610Z,2468
2017-02-17T14:15:25.142Z,2476
2017-02-17T14:16:38.710Z,2452
2017-02-17T14:17:52.184Z,2484
2017-02-17T14:19:05.290Z,2440
2017-02-17T14:20:32.317Z,1104
2017-02-17T14:21:59.740Z,2588
2017-02-17T14:23:13.349Z,2528
2017-02-17T14:24:26.974Z,2500
2017-02-17T14:25:54.672Z,2448
2017-02-17T14:27:08.263Z,2416
2017-02-17T14:28:21.858Z,2272
2017-02-17T14:29:35.778Z,2392
2017-02-17T14:30:49.553Z,2496
2017-02-17T14:32:02.930Z,2488
2017-02-17T14:33:29.653Z,2464
2017-02-17T14:34:42.930Z,2484
2017-02-17T14:35:56.412Z,2452
2017-02-17T14:37:09.152Z,2456
2017-02-17T14:38:22.447Z,2380
2017-02-17T14:39:35.748Z,2480
2017-02-17T14:40:48.752Z,2504
2017-02-17T14:42:02.033Z,2420
2017-02-17T14:43:15.323Z,2464
2017-02-17T14:44:28.639Z,2420
2017-02-17T14:45:41.928Z,2444
2017-02-17T14:46:55.423Z,2452
2017-02-17T14:48:08.161Z,2436
2017-02-17T14:49:20.321Z,2412
2017-02-17T14:50:33.596Z,2396
2017-02-17T14:51:47.203Z,2356
2017-02-17T14:53:00.485Z,2384
2017-02-17T14:54:13.224Z,2188
2017-02-17T14:55:25.978Z,2424
2017-02-17T14:56:38.702Z,2420
2017-02-17T14:57:52.193Z,2416
2017-02-17T14:59:04.947Z,2404
2017-02-17T15:00:18.187Z,2384
2017-02-17T15:01:30.797Z,2368
2017-02-17T15:02:44.324Z,2380
2017-02-17T15:03:57.480Z,2372
2017-02-17T15:05:10.640Z,2352
2017-02-17T15:06:23.797Z,2356
2017-02-17T15:07:36.403Z,2392
2017-02-17T15:08:49.796Z,2376
2017-02-17T15:10:02.956Z,2388
2017-02-17T15:11:16.104Z,2332
2017-02-17T15:12:28.716Z,2368
2017-02-17T15:13:42.225Z,2372
2017-02-17T15:14:54.825Z,2356
2017-02-17T15:16:07.978Z,2328
2017-02-17T15:17:20.575Z,2380
2017-02-17T15:18:33.724Z,2440
2017-02-17T15:19:46.880Z,2432
2017-02-17T15:21:00.034Z,1484
2017-02-17T15:22:13.174Z,2396
2017-02-17T15:23:26.329Z,872
2017-02-17T15:24:39.500Z,880
2017-02-17T15:25:52.656Z,944
2017-02-17T15:27:05.268Z,2180
2017-02-17T15:28:32.443Z,1652
2017-02-17T15:29:45.593Z,2068
2017-02-17T15:30:58.188Z,1964
2017-02-17T15:32:11.329Z,1996
2017-02-17T15:33:24.470Z,1972
2017-02-17T15:34:37.621Z,1928
2017-02-17T15:36:05.072Z,1852
2017-02-17T15:37:17.654Z,1832
2017-02-17T15:38:30.814Z,1780
2017-02-17T15:39:57.982Z,1780
2017-02-17T15:41:11.496Z,1748
2017-02-17T15:42:24.668Z,1712
2017-02-17T15:43:37.815Z,1712
2017-02-17T15:44:50.962Z,1648
2017-02-17T15:46:04.312Z,1676
2017-02-17T15:47:17.487Z,724
2017-02-17T15:48:30.642Z,620
2017-02-17T15:49:43.796Z,1216
2017-02-17T15:50:55.859Z,1680
2017-02-17T15:52:08.778Z,1692
2017-02-17T15:53:21.397Z,1624
2017-02-17T15:54:34.593Z,1576
2017-02-17T15:55:47.196Z,1524
2017-02-17T15:57:00.348Z,1480
2017-02-17T15:58:13.490Z,1392
2017-02-17T15:59:26.097Z,1376
2017-02-17T16:00:39.273Z,1352
2017-02-17T16:02:06.681Z,1320
2017-02-17T16:03:19.277Z,1328
2017-02-17T16:04:32.433Z,1312
2017-02-17T16:05:45.593Z,1320
2017-02-17T16:06:58.737Z,1376
2017-02-17T16:08:12.104Z,628
2017-02-17T16:09:25.242Z,604
2017-02-17T16:10:38.406Z,664
2017-02-17T16:12:05.028Z,1492
2017-02-17T16:13:18.167Z,1496
2017-02-17T16:14:31.317Z,1520
2017-02-17T16:15:44.475Z,1612
2017-02-17T16:16:57.640Z,1580
2017-02-17T16:18:10.799Z,1432
2017-02-17T16:19:23.943Z,1512
2017-02-17T16:20:37.083Z,820
2017-02-17T16:21:49.711Z,1404
2017-02-17T16:23:02.860Z,1392
2017-02-17T16:24:16.332Z,1324
2017-02-17T16:25:29.477Z,1320
2017-02-17T16:26:42.616Z,1304
2017-02-17T16:27:55.198Z,1252
2017-02-17T16:29:08.091Z,1236
2017-02-17T16:30:20.670Z,1192
2017-02-17T16:31:33.834Z,1168
2017-02-17T16:32:46.982Z,1152
2017-02-17T16:33:59.577Z,1172
2017-02-17T16:35:12.968Z,1176
2017-02-17T16:36:26.107Z,1180
2017-02-17T16:37:39.281Z,1060
2017-02-17T16:38:52.423Z,1092
2017-02-17T16:40:05.782Z,1200
2017-02-17T16:41:18.936Z,1256
2017-02-17T16:42:32.084Z,1276
2017-02-17T16:43:44.682Z,1304
2017-02-17T16:44:57.271Z,1340
2017-02-17T16:46:10.972Z,1276
2017-02-17T16:47:23.574Z,1208
2017-02-17T16:48:36.716Z,1176
2017-02-17T16:49:49.888Z,1176
2017-02-17T16:51:03.031Z,1036
2017-02-17T16:52:16.397Z,824
2017-02-17T16:53:29.545Z,976
2017-02-17T16:54:42.756Z,776
2017-02-17T16:55:54.800Z,888
2017-02-17T16:57:08.211Z,1084
2017-02-17T16:58:35.489Z,1084
2017-02-17T16:59:48.642Z,1084
2017-02-17T17:01:15.797Z,1092
2017-02-17T17:02:29.152Z,784
2017-02-17T17:03:41.763Z,1016
2017-02-17T17:04:54.911Z,696
2017-02-17T17:06:08.059Z,720
2017-02-17T17:07:20.081Z,744
2017-02-17T17:08:32.916Z,1096
2017-02-17T17:09:46.089Z,956
2017-02-17T17:10:59.239Z,844
2017-02-17T17:12:11.275Z,1008
2017-02-17T17:13:24.424Z,1032
2017-02-17T17:14:51.606Z,868
2017-02-17T17:16:04.891Z,884
2017-02-17T17:17:16.462Z,840
2017-02-17T17:18:29.952Z,804
2017-02-17T17:19:43.243Z,792
2017-02-17T17:20:56.525Z,820
2017-02-17T17:22:09.824Z,988
2017-02-17T17:23:21.989Z,1252
2017-02-17T17:24:35.282Z,1228
2017-02-17T17:26:02.547Z,1220